Time;durP1;ratioP1;P1;durP2;ratioP2;P2;SDS_P1;SDS_P2;PMS_P1;PMS_P2;Temp;Humidity;BMP_temperature;BMP_pressure;BME280_temperature;BME280_humidity;BME280_pressure;Samples;Min_cycle;Max_cycle;Signal;HPM_P1;HPM_P2
2021/10/25 00:02:03;;;;;;;6.78;5.22;;;;;;;2.34;100.00;96402.50;5112040;28;24451;-74
2021/10/25 00:04:30;;;;;;;6.70;5.43;;;;;;;2.23;100.00;96406.16;5111560;28;24436;-74
2021/10/25 00:06:56;;;;;;;6.93;6.18;;;;;;;2.20;100.00;96403.66;5112058;28;24474;-74
2021/10/25 00:09:23;;;;;;;5.18;4.68;;;;;;;2.17;100.00;96402.84;5111621;28;24445;-74
2021/10/25 00:11:49;;;;;;;11.45;4.90;;;;;;;2.04;100.00;96403.97;5111896;28;24421;-74
2021/10/25 00:14:18;;;;;;;7.13;4.90;;;;;;;2.06;100.00;96403.94;5111716;28;24414;-74
2021/10/25 00:16:44;;;;;;;5.10;4.38;;;;;;;2.09;100.00;96404.72;5112112;28;24414;-75
2021/10/25 00:19:12;;;;;;;6.13;5.32;;;;;;;2.06;100.00;96404.75;5114358;28;24449;-74
2021/10/25 00:21:38;;;;;;;6.80;5.43;;;;;;;2.08;100.00;96404.75;5113504;28;24483;-75
2021/10/25 00:24:05;;;;;;;8.52;5.85;;;;;;;2.11;100.00;96402.09;5113462;28;24433;-75
2021/10/25 00:26:33;;;;;;;7.40;5.32;;;;;;;2.13;100.00;96406.31;5113366;28;24524;-74
2021/10/25 00:28:59;;;;;;;12.20;5.88;;;;;;;2.20;100.00;96406.22;5111241;28;24977;-75
2021/10/25 00:31:27;;;;;;;7.95;5.03;;;;;;;2.15;100.00;96408.84;5111291;28;24486;-75
2021/10/25 00:33:54;;;;;;;6.32;5.43;;;;;;;2.12;100.00;96408.94;5111428;28;24425;-75
2021/10/25 00:36:20;;;;;;;8.02;5.60;;;;;;;2.12;100.00;96414.03;5111774;28;24749;-75
2021/10/25 00:38:47;;;;;;;6.03;5.43;;;;;;;2.11;100.00;96407.22;5113413;28;24487;-75
2021/10/25 00:41:13;;;;;;;5.68;3.83;;;;;;;2.08;100.00;96415.81;5113799;28;24424;-74
2021/10/25 00:43:40;;;;;;;8.90;5.32;;;;;;;2.06;100.00;96417.53;5112642;28;24478;-74
2021/10/25 00:46:08;;;;;;;6.93;5.25;;;;;;;1.99;100.00;96410.03;5113760;28;24974;-75
2021/10/25 00:48:35;;;;;;;5.57;4.90;;;;;;;1.92;100.00;96412.69;5111028;28;25072;-75
2021/10/25 00:51:02;;;;;;;4.88;4.10;;;;;;;1.90;100.00;96411.03;5110809;28;24498;-74
2021/10/25 00:53:30;;;;;;;5.45;4.22;;;;;;;1.88;100.00;96410.22;5111214;28;24463;-74
2021/10/25 00:55:57;;;;;;;4.63;4.00;;;;;;;1.86;100.00;96411.97;5110955;28;24432;-75
2021/10/25 00:58:25;;;;;;;4.05;3.60;;;;;;;1.82;100.00;96413.75;5105577;28;24792;-74
2021/10/25 01:00:51;;;;;;;3.90;3.00;;;;;;;1.85;100.00;96415.38;5112329;28;24987;-74
2021/10/25 01:03:19;;;;;;;3.33;3.00;;;;;;;1.83;100.00;96410.31;5113050;28;24436;-75
2021/10/25 01:05:46;;;;;;;2.92;2.65;;;;;;;1.80;100.00;96410.34;5112571;28;24457;-75
2021/10/25 01:08:13;;;;;;;3.25;2.95;;;;;;;1.79;100.00;96411.25;5111656;28;24413;-74
2021/10/25 01:10:42;;;;;;;2.92;2.65;;;;;;;1.80;100.00;96406.97;5110867;28;24502;-74
2021/10/25 01:13:09;;;;;;;3.95;3.25;;;;;;;1.76;100.00;96403.63;5112562;28;24417;-74
2021/10/25 01:15:35;;;;;;;3.28;2.92;;;;;;;1.77;100.00;96409.56;5113265;28;24418;-75
2021/10/25 01:18:02;;;;;;;3.37;2.87;;;;;;;1.78;100.00;96396.78;5113089;28;24556;-75
2021/10/25 01:20:31;;;;;;;4.32;3.35;;;;;;;1.93;100.00;96404.16;5110616;28;24437;-74
2021/10/25 01:23:00;;;;;;;4.50;3.13;;;;;;;1.86;100.00;96396.66;5110815;28;24490;-74
2021/10/25 01:25:27;;;;;;;4.05;3.22;;;;;;;1.89;100.00;96401.69;5110468;28;24455;-75
2021/10/25 01:27:54;;;;;;;5.65;3.90;;;;;;;1.88;100.00;96397.44;5112348;28;24749;-75
2021/10/25 01:30:20;;;;;;;3.85;3.55;;;;;;;1.90;100.00;96396.56;5112824;28;25002;-75
2021/10/25 01:32:47;;;;;;;5.15;4.65;;;;;;;1.92;100.00;96392.25;5111352;28;24421;-74
2021/10/25 01:35:14;;;;;;;5.13;4.63;;;;;;;1.86;100.00;96399.19;5113025;28;24433;-75
2021/10/25 01:37:42;;;;;;;8.82;4.90;;;;;;;1.82;100.00;96395.84;5111646;28;24433;-74
2021/10/25 01:40:11;;;;;;;5.10;4.30;;;;;;;1.81;100.00;96389.03;5111449;28;24421;-74
2021/10/25 01:42:38;;;;;;;5.00;4.50;;;;;;;1.83;100.00;96386.47;5110694;28;24962;-74
2021/10/25 01:45:07;;;;;;;5.68;5.18;;;;;;;1.87;100.00;96386.38;5110113;28;24420;-74
2021/10/25 01:47:33;;;;;;;6.55;5.90;;;;;;;1.85;100.00;96387.28;5113693;28;24474;-74
2021/10/25 01:50:00;;;;;;;7.10;6.40;;;;;;;1.86;100.00;96374.50;5117405;28;24486;-75
2021/10/25 01:52:27;;;;;;;11.20;6.63;;;;;;;1.94;100.00;96371.78;5117127;28;24429;-74
2021/10/25 01:54:55;;;;;;;8.20;7.28;;;;;;;1.83;100.00;96381.38;5116726;28;24803;-75
2021/10/25 01:57:22;;;;;;;11.27;7.35;;;;;;;1.83;100.00;96378.81;5116815;28;24445;-74
2021/10/25 01:59:48;;;;;;;8.75;7.38;;;;;;;1.79;100.00;96372.94;5114128;28;24836;-74
2021/10/25 02:02:15;;;;;;;12.48;7.00;;;;;;;1.78;100.00;96378.03;5114828;28;24434;-74
2021/10/25 02:04:42;;;;;;;9.15;6.85;;;;;;;1.72;100.00;96373.06;5114017;28;25046;-74
2021/10/25 02:07:08;;;;;;;10.50;6.93;;;;;;;1.78;100.00;96378.91;5114295;27;24482;-75
2021/10/25 02:09:35;;;;;;;24.73;7.18;;;;;;;1.64;100.00;96375.75;5114330;28;24429;-75
2021/10/25 02:12:03;;;;;;;7.97;6.40;;;;;;;1.62;100.00;96367.28;5114499;28;24425;-75
2021/10/25 02:14:29;;;;;;;8.60;5.55;;;;;;;1.65;100.00;96370.63;5113936;28;24999;-74
2021/10/25 02:16:56;;;;;;;13.02;5.80;;;;;;;1.62;100.00;96365.56;5114223;28;24953;-74
2021/10/25 02:19:23;;;;;;;11.95;5.43;;;;;;;1.70;100.00;96366.25;5114129;28;24514;-74
2021/10/25 02:21:49;;;;;;;8.60;6.78;;;;;;;1.71;100.00;96367.13;5114017;28;24414;-74
2021/10/25 02:24:16;;;;;;;7.80;6.07;;;;;;;1.76;100.00;96361.94;5113919;28;24417;-75
2021/10/25 02:26:42;;;;;;;7.88;5.95;;;;;;;1.80;100.00;96361.00;5113749;28;24413;-75
2021/10/25 02:29:10;;;;;;;7.47;5.88;;;;;;;1.76;100.00;96372.13;5113521;28;24820;-74
2021/10/25 02:31:37;;;;;;;6.97;5.85;;;;;;;1.75;100.00;96363.66;5113576;28;25101;-75
2021/10/25 02:34:04;;;;;;;7.65;6.10;;;;;;;1.75;100.00;96363.66;5113613;28;24973;-75
2021/10/25 02:36:30;;;;;;;8.95;7.38;;;;;;;1.80;100.00;96358.44;5113716;28;24791;-74
2021/10/25 02:38:57;;;;;;;10.68;6.93;;;;;;;1.81;100.00;96360.13;5113998;28;24529;-75
2021/10/25 02:41:23;;;;;;;8.30;7.20;;;;;;;1.74;100.00;96356.00;5115205;28;24429;-75
2021/10/25 02:43:50;;;;;;;8.57;6.43;;;;;;;1.61;100.00;96350.28;5115521;28;24434;-75
2021/10/25 02:46:18;;;;;;;6.28;5.60;;;;;;;1.62;100.00;96347.69;5115401;28;24417;-75
2021/10/25 02:48:45;;;;;;;15.63;6.83;;;;;;;1.75;100.00;96347.47;5115532;28;24562;-74
2021/10/25 02:51:12;;;;;;;7.63;6.82;;;;;;;1.69;100.00;96343.31;5114960;28;24445;-75
2021/10/25 02:53:38;;;;;;;6.88;6.00;;;;;;;1.70;100.00;96343.28;5113296;28;24463;-74
2021/10/25 02:56:05;;;;;;;8.10;4.78;;;;;;;1.58;100.00;96340.97;5112819;28;24430;-74
2021/10/25 02:58:31;;;;;;;12.52;3.30;;;;;;;1.51;100.00;96341.94;5112927;28;24474;-74
2021/10/25 03:00:59;;;;;;;14.32;3.17;;;;;;;1.53;100.00;96337.66;5113353;28;24483;-74
2021/10/25 03:03:26;;;;;;;16.77;2.78;;;;;;;1.53;100.00;96335.13;5113157;28;24432;-74
2021/10/25 03:05:53;;;;;;;15.33;2.73;;;;;;;1.43;100.00;96331.88;5112525;28;25004;-74
2021/10/25 03:08:20;;;;;;;7.07;2.47;;;;;;;1.54;100.00;96334.22;5112928;28;24414;-74
2021/10/25 03:10:46;;;;;;;11.50;2.88;;;;;;;1.56;100.00;96329.09;5112713;28;24444;-74
2021/10/25 03:13:13;;;;;;;8.82;2.90;;;;;;;1.63;100.00;96335.75;5112929;28;25053;-74
2021/10/25 03:15:40;;;;;;;12.55;3.15;;;;;;;1.51;100.00;96334.28;5114489;28;24889;-75
2021/10/25 03:18:06;;;;;;;3.80;2.30;;;;;;;1.36;100.00;96334.56;5111775;28;24491;-74
2021/10/25 03:20:34;;;;;;;2.33;2.08;;;;;;;1.49;100.00;96332.66;5109671;28;24426;-74
2021/10/25 03:23:00;;;;;;;3.03;2.72;;;;;;;1.56;100.00;96339.28;5113056;28;24433;-74
2021/10/25 03:25:27;;;;;;;3.10;2.55;;;;;;;1.63;100.00;96334.06;5112545;28;24426;-74
2021/10/25 03:27:53;;;;;;;4.28;2.75;;;;;;;1.75;100.00;96337.28;5099956;28;24994;-74
2021/10/25 03:30:20;;;;;;;4.05;3.25;;;;;;;1.84;100.00;96337.91;5092393;28;24438;-74
2021/10/25 03:32:47;;;;;;;3.25;2.92;;;;;;;1.87;100.00;96342.13;5092920;28;24414;-74
2021/10/25 03:35:13;;;;;;;5.27;3.30;;;;;;;1.51;100.00;96334.28;5095193;28;24420;-74
2021/10/25 03:37:41;;;;;;;3.60;2.87;;;;;;;1.44;100.00;96330.16;5113323;28;24479;-74
2021/10/25 03:40:09;;;;;;;3.75;2.85;;;;;;;1.41;100.00;96313.22;5113855;28;24416;-74
2021/10/25 03:42:40;;;;;;;3.97;2.67;;;;;;;1.52;100.00;96318.13;5112959;28;24433;-75
2021/10/25 03:45:12;;;;;;;3.30;2.83;;;;;;;1.38;100.00;96308.16;5110885;28;24850;-75
2021/10/25 03:47:42;;;;;;;3.40;2.70;;;;;;;1.32;100.00;96317.63;5112163;28;24448;-75
2021/10/25 03:50:12;;;;;;;3.97;2.80;;;;;;;1.46;100.00;96315.66;5112108;28;24473;-75
2021/10/25 03:52:44;;;;;;;6.23;3.50;;;;;;;1.45;100.00;96314.00;5111865;28;24432;-75
2021/10/25 03:55:16;;;;;;;4.00;3.60;;;;;;;1.29;100.00;96315.13;5111973;28;24421;-75
2021/10/25 04:03:45;;;;;;;5.53;3.22;;;;;;;1.19;100.00;96325.50;5035823;28;24598;-74
2021/10/25 04:28:05;;;;;;;22.80;2.47;;;;;;;1.33;100.00;96332.06;5111383;28;24981;-75
2021/10/25 04:30:33;;;;;;;41.13;3.08;;;;;;;1.44;100.00;96335.25;5093115;28;24430;-75
2021/10/25 04:33:00;;;;;;;25.42;3.25;;;;;;;1.38;100.00;96330.28;5109012;28;24959;-75
2021/10/25 04:35:27;;;;;;;49.95;3.22;;;;;;;1.28;100.00;96331.31;5111118;28;24424;-75
2021/10/25 04:37:54;;;;;;;16.67;3.05;;;;;;;1.20;100.00;96326.34;5111481;28;24424;-75
2021/10/25 04:40:21;;;;;;;9.75;3.35;;;;;;;1.21;100.00;96311.00;5110362;28;24442;-75
2021/10/25 04:42:48;;;;;;;4.30;3.10;;;;;;;1.27;100.00;96325.38;5111419;28;24436;-75
2021/10/25 04:45:18;;;;;;;2.95;2.65;;;;;;;1.30;100.00;96321.91;5107958;28;24955;-75
2021/10/25 04:47:44;;;;;;;2.80;2.58;;;;;;;0.95;100.00;96311.44;5098637;28;24446;-75
2021/10/25 04:50:11;;;;;;;3.00;2.60;;;;;;;0.99;100.00;96316.50;5111198;28;24425;-75
2021/10/25 04:52:38;;;;;;;3.65;2.78;;;;;;;1.13;100.00;96322.22;5102538;28;24457;-69
2021/10/25 04:55:05;;;;;;;5.13;2.73;;;;;;;1.26;100.00;96326.25;5102814;28;24436;-75
2021/10/25 04:57:32;;;;;;;2.60;2.30;;;;;;;1.38;100.00;96317.53;5110838;28;24953;-75
2021/10/25 04:59:58;;;;;;;2.60;2.40;;;;;;;1.21;100.00;96321.19;5111212;28;24418;-75
2021/10/25 05:02:26;;;;;;;6.68;2.58;;;;;;;0.96;100.00;96315.69;5111093;28;24791;-75
2021/10/25 05:04:52;;;;;;;4.57;2.87;;;;;;;0.89;100.00;96318.34;5110839;28;24962;-75
2021/10/25 05:07:19;;;;;;;2.80;2.50;;;;;;;1.00;100.00;96319.00;5110793;28;24421;-75
2021/10/25 05:09:46;;;;;;;4.70;2.72;;;;;;;1.17;100.00;96314.47;5111253;28;24429;-75
2021/10/25 05:12:14;;;;;;;3.10;2.80;;;;;;;1.15;100.00;96318.78;5111075;28;24441;-75
2021/10/25 05:14:40;;;;;;;5.72;3.60;;;;;;;0.99;100.00;96319.88;5111027;28;24421;-75
2021/10/25 05:17:08;;;;;;;4.80;3.40;;;;;;;1.00;100.00;96319.00;5110676;28;24963;-75
2021/10/25 05:19:36;;;;;;;5.07;3.55;;;;;;;1.07;100.00;96309.53;5111160;28;24464;-75
2021/10/25 05:22:02;;;;;;;7.07;4.10;;;;;;;1.21;100.00;96310.16;5112892;28;24414;-75
2021/10/25 05:24:29;;;;;;;9.35;3.83;;;;;;;1.28;100.00;96316.84;5115174;28;24826;-75
2021/10/25 05:26:56;;;;;;;6.85;3.80;;;;;;;1.30;100.00;96319.34;5114910;28;24977;-75
2021/10/25 05:29:22;;;;;;;6.40;4.10;;;;;;;1.30;100.00;96316.78;5115042;28;24423;-75
2021/10/25 05:31:49;;;;;;;7.50;4.50;;;;;;;1.34;100.00;96319.28;5114757;28;24536;-75
2021/10/25 05:34:15;;;;;;;5.60;4.32;;;;;;;1.33;100.00;96311.66;5115097;28;24848;-75
2021/10/25 05:36:43;;;;;;;8.10;4.35;;;;;;;1.08;100.00;96307.00;5114519;28;25074;-75
2021/10/25 05:39:10;;;;;;;7.53;4.60;;;;;;;1.29;100.00;96299.81;5114763;28;24771;-75
2021/10/25 05:41:38;;;;;;;6.25;4.30;;;;;;;1.52;100.00;96309.59;5114700;28;25046;-75
2021/10/25 05:44:05;;;;;;;6.97;4.40;;;;;;;1.50;100.00;96319.84;5114912;28;24487;-75
2021/10/25 05:46:32;;;;;;;4.97;4.07;;;;;;;1.35;100.00;96325.22;5114632;28;24426;-75
2021/10/25 05:48:59;;;;;;;5.43;4.30;;;;;;;1.26;100.00;96321.13;5114756;28;24459;-75
2021/10/25 05:51:25;;;;;;;5.75;3.50;;;;;;;1.27;100.00;96319.44;5114357;28;24872;-75
2021/10/25 05:53:54;;;;;;;5.22;3.65;;;;;;;1.32;100.00;96315.06;5114354;28;24422;-76
2021/10/25 05:56:21;;;;;;;6.53;5.00;;;;;;;1.51;100.00;96313.84;5105614;28;24436;-76
2021/10/25 05:58:48;;;;;;;11.45;6.38;;;;;;;1.60;100.00;96317.97;5107366;28;24494;-76
2021/10/25 06:01:17;;;;;;;6.88;5.20;;;;;;;1.42;100.00;96309.78;5114696;28;24417;-76
2021/10/25 06:03:47;;;;;;;7.85;5.28;;;;;;;1.26;100.00;96312.63;5115010;28;24429;-76
2021/10/25 06:06:13;;;;;;;6.75;4.85;;;;;;;1.18;100.00;96305.94;5114103;28;24483;-76
2021/10/25 06:08:40;;;;;;;3.53;2.83;;;;;;;1.30;100.00;96315.13;5114469;28;24438;-77
2021/10/25 06:11:09;;;;;;;5.55;3.00;;;;;;;1.23;100.00;96323.75;5114168;28;25024;-76
2021/10/25 06:13:38;;;;;;;6.00;3.60;;;;;;;1.26;100.00;96322.81;5114123;28;24425;-76
2021/10/25 06:16:11;;;;;;;4.07;3.10;;;;;;;1.26;100.00;96320.28;5113919;28;24424;-75
2021/10/25 06:18:37;;;;;;;4.00;2.95;;;;;;;1.49;100.00;96325.81;5114138;28;24457;-76
2021/10/25 06:21:04;;;;;;;3.70;3.13;;;;;;;1.38;100.00;96322.63;5114199;28;24479;-76
2021/10/25 06:23:31;;;;;;;5.63;3.50;;;;;;;1.26;100.00;96323.69;5113819;28;24977;-77
2021/10/25 06:25:58;;;;;;;6.45;3.50;;;;;;;1.34;100.00;96323.56;5098179;28;24456;-76
2021/10/25 06:28:26;;;;;;;5.32;3.33;;;;;;;1.29;100.00;96320.22;5094219;28;24533;-76
2021/10/25 06:30:59;;;;;;;4.88;3.38;;;;;;;1.24;100.00;96314.38;5094313;28;24647;-77
2021/10/25 06:33:26;;;;;;;4.38;3.10;;;;;;;1.25;100.00;96319.44;5109586;28;24433;-76
2021/10/25 06:36:01;;;;;;;5.40;3.13;;;;;;;1.41;100.00;96320.88;5114521;28;24417;-77
2021/10/25 06:38:32;;;;;;;5.45;3.08;;;;;;;1.56;100.00;96326.53;5114955;28;24428;-77
2021/10/25 06:40:59;;;;;;;4.63;3.13;;;;;;;1.65;100.00;96332.31;5114723;28;24530;-77
2021/10/25 06:43:27;;;;;;;2.42;2.13;;;;;;;1.62;100.00;96332.38;5113709;28;24429;-77
2021/10/25 06:45:54;;;;;;;2.05;1.85;;;;;;;1.60;100.00;96335.84;5113903;28;24422;-76
2021/10/25 06:48:21;;;;;;;2.83;2.20;;;;;;;1.77;100.00;96330.41;5114086;28;24432;-76
2021/10/25 06:50:48;;;;;;;3.92;2.67;;;;;;;1.89;100.00;96332.72;5114303;28;24834;-78
2021/10/25 06:53:16;;;;;;;4.95;3.00;;;;;;;2.03;100.00;96340.09;5104675;28;25054;-76
2021/10/25 06:55:43;;;;;;;3.17;2.80;;;;;;;2.00;100.00;96347.81;5113370;28;24433;-76
2021/10/25 06:58:09;;;;;;;4.22;2.80;;;;;;;1.98;100.00;96341.91;5117938;28;24430;-77
2021/10/25 07:00:38;;;;;;;3.90;3.00;;;;;;;1.95;100.00;96353.03;5118123;28;24426;-77
2021/10/25 07:03:05;;;;;;;3.72;2.60;;;;;;;1.90;100.00;96359.97;5119398;28;25015;-78
2021/10/25 07:05:33;;;;;;;3.63;2.47;;;;;;;2.06;100.00;96350.28;5121147;28;24433;-79
2021/10/25 07:08:00;;;;;;;5.43;3.03;;;;;;;2.27;100.00;96361.78;5121376;28;24791;-78
2021/10/25 07:10:27;;;;;;;4.20;3.13;;;;;;;2.40;100.00;96358.06;5120054;28;24491;-77
2021/10/25 07:12:54;;;;;;;3.43;2.70;;;;;;;2.55;100.00;96357.75;5118296;28;24939;-77
2021/10/25 07:15:21;;;;;;;5.68;3.17;;;;;;;2.64;100.00;96351.59;5118889;28;24433;-77
2021/10/25 07:17:53;;;;;;;4.05;3.08;;;;;;;2.91;100.00;96355.22;5121375;28;24421;-78
2021/10/25 07:23:42;;;;;;;5.20;2.75;;;;;;;2.83;100.00;96345.19;5114856;28;24838;-78
2021/10/25 07:26:42;;;;;;;3.47;2.47;;;;;;;2.87;100.00;96348.50;5102563;28;24473;-78
2021/10/25 08:05:17;;;;;;;19.10;4.05;;;;;;;2.57;100.00;96350.06;5036994;28;24485;-77
2021/10/25 08:10:40;;;;;;;4.83;3.40;;;;;;;3.04;100.00;96353.22;5115072;28;24425;-77
2021/10/25 08:13:12;;;;;;;4.28;3.15;;;;;;;3.33;100.00;96349.94;5113429;28;24438;-77
2021/10/25 08:15:41;;;;;;;3.20;2.90;;;;;;;3.57;100.00;96343.38;5113420;28;24822;-78
2021/10/25 08:18:20;;;;;;;3.70;3.20;;;;;;;3.69;100.00;96344.78;5124715;28;24501;-77
2021/10/25 08:20:46;;;;;;;6.20;3.42;;;;;;;3.70;100.00;96336.19;5121480;28;25028;-77
2021/10/25 08:23:14;;;;;;;3.33;2.58;;;;;;;3.68;100.00;96333.69;5119216;28;24422;-79
2021/10/25 08:25:54;;;;;;;3.10;2.80;;;;;;;3.78;100.00;96336.81;5109058;28;24430;-78
2021/10/25 08:28:21;;;;;;;3.83;2.67;;;;;;;3.80;100.00;96328.22;5095933;28;24475;-77
2021/10/25 08:30:48;;;;;;;2.95;2.50;;;;;;;3.71;100.00;96331.06;5092036;28;24425;-76
2021/10/25 08:33:29;;;;;;;6.22;2.67;;;;;;;3.86;100.00;96329.78;5092475;28;24446;-77
2021/10/25 08:36:09;;;;;;;6.35;2.78;;;;;;;4.33;100.00;96327.59;5092381;28;24975;-77
2021/10/25 08:41:23;;;;;;;3.90;2.72;;;;;;;5.35;100.00;96326.13;5092803;28;24464;-77
2021/10/25 08:43:51;;;;;;;3.58;2.58;;;;;;;5.79;99.61;96324.59;5092304;28;24430;-76
2021/10/25 08:46:19;;;;;;;5.15;3.22;;;;;;;6.19;99.05;96324.91;5093160;28;24967;-78
2021/10/25 08:48:46;;;;;;;8.18;4.25;;;;;;;6.59;97.68;96323.44;5092826;28;24502;-77
2021/10/25 08:51:14;;;;;;;15.38;9.90;;;;;;;6.71;96.78;96325.53;5092953;28;24789;-77
2021/10/25 08:53:42;;;;;;;9.43;4.63;;;;;;;6.81;96.15;96324.28;5092764;28;24558;-77
2021/10/25 08:56:09;;;;;;;6.32;3.88;;;;;;;7.07;97.64;96325.00;5092809;28;24441;-76
2021/10/25 08:58:38;;;;;;;5.25;4.00;;;;;;;7.21;97.11;96322.72;5091401;28;24483;-77
2021/10/25 09:01:05;;;;;;;4.70;3.80;;;;;;;7.12;96.80;96323.06;5094960;28;24479;-77
2021/10/25 09:03:31;;;;;;;5.15;3.95;;;;;;;7.11;97.51;96327.38;5112625;28;24463;-76
2021/10/25 09:06:00;;;;;;;6.50;3.67;;;;;;;6.78;95.03;96330.38;5112257;28;24514;-76
2021/10/25 09:08:29;;;;;;;6.13;3.60;;;;;;;6.78;96.51;96329.53;5111501;28;21172;-76
2021/10/25 09:10:58;;;;;;;7.53;4.07;;;;;;;6.58;98.42;96326.91;5112658;28;24440;-76
2021/10/25 09:13:26;;;;;;;7.47;4.33;;;;;;;6.36;100.00;96329.44;5111705;28;24457;-75
2021/10/25 09:15:56;;;;;;;14.73;5.43;;;;;;;6.39;100.00;96327.59;5111375;28;25018;-74
2021/10/25 09:18:25;;;;;;;12.65;6.43;;;;;;;6.24;100.00;96323.88;5111354;28;24444;-75
2021/10/25 09:20:54;;;;;;;15.77;7.20;;;;;;;6.28;100.00;96327.16;5112121;28;24430;-75
2021/10/25 09:23:22;;;;;;;15.50;7.13;;;;;;;6.18;100.00;96324.09;5113365;28;24432;-76
2021/10/25 09:25:53;;;;;;;13.63;6.18;;;;;;;6.37;100.00;96320.84;5111462;28;24436;-77
2021/10/25 09:28:26;;;;;;;38.40;7.70;;;;;;;6.62;100.00;96319.00;5105267;28;24487;-76
2021/10/25 09:30:54;;;;;;;14.40;6.25;;;;;;;7.01;100.00;96320.94;5109010;28;24434;-75
2021/10/25 09:33:22;;;;;;;10.63;4.57;;;;;;;7.21;97.90;96314.97;5111409;28;24451;-75
2021/10/25 09:35:56;;;;;;;11.30;4.20;;;;;;;7.32;96.75;96317.13;5110936;28;20763;-75
2021/10/25 09:38:30;;;;;;;9.45;3.13;;;;;;;7.65;95.27;96313.13;5111690;28;20761;-75
2021/10/25 09:46:38;;;;;;;3.95;2.40;;;;;;;8.50;91.86;96304.28;5111248;28;24930;-76
2021/10/25 09:49:08;;;;;;;4.65;2.40;;;;;;;9.05;89.30;96299.06;5111081;28;21103;-75
2021/10/25 09:51:37;;;;;;;4.35;2.60;;;;;;;9.14;85.82;96298.63;5111125;28;24835;-76
2021/10/25 09:54:04;;;;;;;3.78;2.50;;;;;;;9.39;85.80;96295.69;5111031;28;24510;-75
2021/10/25 09:56:34;;;;;;;3.17;2.30;;;;;;;9.74;84.94;96293.06;5111272;28;24424;-76
2021/10/25 09:59:09;;;;;;;5.30;2.50;;;;;;;9.76;84.16;96294.69;5111577;28;20764;-76
2021/10/25 10:01:37;;;;;;;3.75;2.60;;;;;;;9.90;81.39;96297.41;5111870;28;24453;-76
2021/10/25 10:04:04;;;;;;;5.82;2.63;;;;;;;10.04;81.89;96288.06;5111063;28;24483;-77
2021/10/25 10:06:31;;;;;;;5.95;3.10;;;;;;;10.03;81.27;96294.16;5110081;28;24799;-76
2021/10/25 10:08:59;;;;;;;8.90;3.03;;;;;;;9.84;82.33;96287.34;5111486;28;24486;-77
2021/10/25 10:11:27;;;;;;;5.18;3.08;;;;;;;9.70;83.02;96284.63;5114220;28;20799;-76
2021/10/25 10:13:53;;;;;;;5.80;3.10;;;;;;;9.55;84.00;96288.84;5114057;28;20811;-77
2021/10/25 10:16:23;;;;;;;5.57;3.10;;;;;;;9.46;82.81;96284.13;5114188;28;24470;-76
2021/10/25 10:18:53;;;;;;;13.85;3.13;;;;;;;9.64;84.64;96279.75;5114135;28;24487;-76
2021/10/25 10:21:21;;;;;;;11.90;3.87;;;;;;;9.66;84.63;96285.72;5114627;28;20781;-76
2021/10/25 10:23:52;;;;;;;9.45;4.40;;;;;;;9.67;86.31;96279.63;5114253;28;24413;-76
2021/10/25 10:26:19;;;;;;;8.23;4.20;;;;;;;9.78;86.71;96285.06;5094739;28;20874;-77
2021/10/25 10:28:49;;;;;;;12.82;4.05;;;;;;;9.90;85.13;96291.34;5093548;28;24418;-76
2021/10/25 10:31:18;;;;;;;13.32;4.28;;;;;;;10.00;84.62;96278.78;5093638;28;20709;-76
2021/10/25 10:33:51;;;;;;;15.32;4.85;;;;;;;10.08;83.70;96277.47;5093406;28;21321;-76
2021/10/25 10:36:22;;;;;;;19.80;5.40;;;;;;;10.17;81.37;96273.56;5093220;28;20759;-76
2021/10/25 10:38:52;;;;;;;14.05;5.10;;;;;;;10.32;82.85;96277.13;5093319;28;20716;-76
2021/10/25 10:41:20;;;;;;;13.23;3.97;;;;;;;10.38;81.06;96274.19;5093782;28;20760;-76
2021/10/25 10:44:08;;;;;;;9.20;3.20;;;;;;;10.43;78.87;96272.22;5098506;28;25013;-76
2021/10/25 10:46:48;;;;;;;9.02;3.40;;;;;;;10.46;79.29;96271.22;5102402;28;24441;-76
2021/10/25 10:49:26;;;;;;;6.47;3.33;;;;;;;10.52;78.62;96268.28;5103840;28;24551;-76
2021/10/25 10:52:22;;;;;;;9.57;3.17;;;;;;;10.63;77.74;96271.09;5096058;28;24436;-77
2021/10/25 11:00:27;;;;;;;7.85;3.65;;;;;;;11.00;78.54;96269.88;5089742;28;24433;-75
2021/10/25 11:02:55;;;;;;;6.07;3.25;;;;;;;10.99;79.42;96272.59;5092791;28;24429;-75
2021/10/25 11:05:32;;;;;;;7.40;3.65;;;;;;;10.95;77.23;96263.31;5092530;28;24429;-75
2021/10/25 11:08:08;;;;;;;6.23;3.10;;;;;;;10.95;79.35;96268.50;5092705;28;24952;-76
2021/10/25 11:10:35;;;;;;;5.22;2.40;;;;;;;10.92;76.95;96261.72;5093314;28;24454;-76
2021/10/25 11:13:08;;;;;;;4.80;2.70;;;;;;;10.89;79.13;96265.31;5095253;28;24445;-77
2021/10/25 11:15:41;;;;;;;4.43;2.30;;;;;;;10.82;79.08;96260.56;5093273;28;24880;-75
2021/10/25 11:18:07;;;;;;;3.13;2.30;;;;;;;10.87;79.24;96259.41;5104720;28;24487;-76
2021/10/25 11:20:36;;;;;;;4.25;2.47;;;;;;;11.02;79.28;96255.09;5113183;28;24426;-74
2021/10/25 11:23:05;;;;;;;5.30;2.10;;;;;;;11.06;79.88;96258.34;5113302;28;24457;-75
2021/10/25 11:25:44;;;;;;;6.13;2.40;;;;;;;11.24;79.02;96248.69;5100387;28;24436;-75
2021/10/25 11:28:19;;;;;;;3.33;1.90;;;;;;;11.46;76.19;96240.47;5092448;28;24426;-78
2021/10/25 11:30:46;;;;;;;4.65;2.30;;;;;;;11.56;75.90;96236.41;5092202;28;24425;-76
2021/10/25 11:33:16;;;;;;;4.43;2.22;;;;;;;11.57;76.02;96233.75;5092320;28;24445;-74
2021/10/25 11:35:48;;;;;;;5.20;2.22;;;;;;;11.55;77.00;96235.59;5092194;28;24425;-74
2021/10/25 11:38:15;;;;;;;5.83;2.27;;;;;;;11.68;77.48;96232.25;5092136;28;24422;-73
2021/10/25 11:40:42;;;;;;;3.80;2.22;;;;;;;11.85;76.82;96226.94;5092398;28;24422;-75
2021/10/25 11:43:09;;;;;;;5.82;2.78;;;;;;;12.18;75.68;96234.41;5092690;28;24419;-74
2021/10/25 11:45:36;;;;;;;5.75;2.45;;;;;;;12.20;76.53;96222.19;5092251;28;24512;-73
2021/10/25 11:48:03;;;;;;;5.97;2.88;;;;;;;12.34;74.75;96218.72;5092338;28;24422;-74
2021/10/25 11:50:32;;;;;;;8.88;3.65;;;;;;;12.53;75.31;96223.56;5092055;28;24970;-73
2021/10/25 11:53:04;;;;;;;18.38;5.55;;;;;;;12.71;73.46;96213.78;5092719;28;24473;-73
2021/10/25 11:55:33;;;;;;;11.25;4.03;;;;;;;12.70;74.28;96210.34;5092518;28;24430;-73
2021/10/25 11:58:02;;;;;;;10.77;4.10;;;;;;;12.78;74.63;96202.91;5127965;27;24429;-73
2021/10/25 12:00:30;;;;;;;5.93;2.72;;;;;;;12.86;73.36;96210.19;5132937;27;24820;-73
2021/10/25 12:03:05;;;;;;;12.55;2.92;;;;;;;12.91;73.80;96204.72;5113992;27;25005;-72
2021/10/25 12:05:31;;;;;;;7.13;2.65;;;;;;;12.91;74.13;96202.13;5111632;28;24516;-76
2021/10/25 12:07:58;;;;;;;7.80;2.70;;;;;;;12.94;74.55;96204.50;5111835;28;24424;-72
2021/10/25 12:10:28;;;;;;;2.83;1.70;;;;;;;13.19;69.42;96199.34;5111709;28;24476;-72
2021/10/25 12:12:56;;;;;;;6.40;1.95;;;;;;;13.31;70.23;96201.19;5112013;28;24430;-73
2021/10/25 12:15:24;;;;;;;6.05;2.72;;;;;;;13.40;66.86;96196.31;5111474;28;24413;-72
2021/10/25 12:17:51;;;;;;;6.72;2.97;;;;;;;13.39;67.19;96187.66;5111818;28;24486;-74
2021/10/25 12:20:23;;;;;;;4.50;2.75;;;;;;;13.47;66.11;96192.34;5112238;28;24425;-73
2021/10/25 12:22:58;;;;;;;5.68;2.63;;;;;;;13.49;65.19;96193.06;5112394;28;25116;-73
2021/10/25 12:25:26;;;;;;;3.90;2.75;;;;;;;13.51;65.47;96193.81;5112147;28;25153;-73
2021/10/25 12:27:58;;;;;;;7.63;3.20;;;;;;;13.58;65.27;96186.41;5112270;28;24434;-73
2021/10/25 12:30:24;;;;;;;4.50;2.50;;;;;;;13.71;67.68;96184.63;5113146;28;24421;-74
2021/10/25 12:32:54;;;;;;;4.57;2.47;;;;;;;13.80;66.05;96176.19;5112827;28;24462;-74
2021/10/25 12:35:31;;;;;;;8.38;2.75;;;;;;;13.80;65.65;96174.44;5113564;28;25130;-74
2021/10/25 12:37:58;;;;;;;5.43;2.53;;;;;;;13.69;65.98;96176.94;5112503;28;25080;-73
2021/10/25 12:40:27;;;;;;;7.30;3.20;;;;;;;13.85;64.85;96170.66;5112447;28;24417;-74
2021/10/25 12:43:00;;;;;;;3.95;2.83;;;;;;;13.76;63.91;96170.38;5112293;28;24445;-74
2021/10/25 12:45:31;;;;;;;3.97;2.10;;;;;;;13.81;65.12;96164.84;5111602;28;24505;-73
2021/10/25 12:47:59;;;;;;;3.13;2.05;;;;;;;13.86;69.18;96160.13;5111087;28;24437;-73
2021/10/25 12:50:32;;;;;;;5.37;2.23;;;;;;;13.93;66.73;96163.97;5111686;28;24504;-73
2021/10/25 12:52:58;;;;;;;4.13;2.33;;;;;;;13.88;67.66;96160.03;5111545;28;24482;-73
2021/10/25 12:55:26;;;;;;;5.85;2.47;;;;;;;13.99;66.89;96162.72;5099325;28;24437;-70
2021/10/25 12:57:55;;;;;;;3.78;1.90;;;;;;;13.94;67.97;96157.84;5090774;28;24418;-73
2021/10/25 13:00:22;;;;;;;6.85;1.70;;;;;;;13.93;68.07;96155.34;5090979;28;24505;-73
2021/10/25 13:02:52;;;;;;;2.80;1.83;;;;;;;13.94;68.31;96162.19;5091204;28;24418;-73
2021/10/25 13:05:20;;;;;;;13.98;2.63;;;;;;;13.91;69.24;96155.47;5090654;28;25051;-73